CMA CGM Rhone — 9HA3778 — position and weather

sailwx.info

Track history (hours):
 
Tides and Currents Weather Stations Pressure Air Temp Water Temp Dewpoint Dewpoint Depression Visibility Wind Speed Wind Dir Waves Ship Positions

CMA CGM Rhone

Last reported at 2018-Feb-24 14:02 UTC. Time now 2018-Feb-25 03:50 UTC.
Position N 01°15' E 104°15'.

Length 300 m; draft 12.3 m.

Type: Ship (hazmat cat A). MMSI: 229989000.

Date/timePositionNaut miles runAvg speedWind from/ knotsBaromVisibWave heightAir tempDewpointWater temp
2018-Feb-24 14:02N 01°15' E 104°15'720.0
2018-Feb-24 13:39N 01°15' E 104°07'319.7
2018-Feb-24 13:30N 01°14' E 104°04'918.8
2018-Feb-24 13:00N 01°13' E 103°55'612.6
2018-Feb-24 12:30N 01°12' E 103°49'4 8.6
2018-Feb-24 12:00N 01°15' E 103°46'1 2.1
2018-Feb-24 11:29N 01°16' E 103°47'0 0.0
2018-Feb-24 10:44N 01°16' E 103°47'0 0.0
2018-Feb-24 10:29N 01°16' E 103°47'0 0.0
2018-Feb-24 09:56N 01°16' E 103°47'0 0.0
2018-Feb-24 09:29N 01°16' E 103°47'0 0.0
2018-Feb-24 08:50N 01°16' E 103°47'0 0.0
2018-Feb-24 08:26N 01°16' E 103°47'0 0.0
2018-Feb-24 07:59N 01°16' E 103°47'0 0.0
2018-Feb-24 07:29N 01°16' E 103°47'0 0.0
2018-Feb-24 06:59N 01°16' E 103°47'0 0.0
2018-Feb-24 06:29N 01°16' E 103°47'0 0.0
2018-Feb-24 05:59N 01°16' E 103°47'0 0.0
2018-Feb-24 05:26N 01°16' E 103°47'0 0.0
2018-Feb-24 04:59N 01°16' E 103°47'0 0.0
2018-Feb-24 04:29N 01°16' E 103°47'0 0.0
2018-Feb-24 03:55N 01°16' E 103°47'0 0.0
2018-Feb-24 03:22N 01°16' E 103°47'0 0.0
2018-Feb-24 02:58N 01°16' E 103°47'0 0.0
2018-Feb-24 02:28N 01°16' E 103°47'0 0.0
2018-Feb-24 01:52N 01°16' E 103°47'0 0.0
2018-Feb-24 01:25N 01°16' E 103°47'0 0.0
2018-Feb-24 00:46N 01°16' E 103°47'0 0.0
2018-Feb-24 00:28N 01°16' E 103°47'0 0.0
2018-Feb-23 23:58N 01°16' E 103°47'0 0.0
2018-Feb-23 23:28N 01°16' E 103°47'0 0.0
2018-Feb-23 22:52N 01°16' E 103°47'0 0.0
2018-Feb-23 22:28N 01°16' E 103°47'0 0.0
2018-Feb-23 21:49N 01°16' E 103°47'0 0.0
2018-Feb-23 21:22N 01°16' E 103°47'0 0.0
2018-Feb-23 20:49N 01°16' E 103°47'0 0.0
2018-Feb-23 20:28N 01°16' E 103°47'0 0.0
2018-Feb-23 19:52N 01°16' E 103°47'0 0.0
2018-Feb-23 19:16N 01°16' E 103°47'0 0.0
2018-Feb-23 18:58N 01°16' E 103°47'0 0.0
2018-Feb-23 18:28N 01°16' E 103°47'0 0.0
2018-Feb-23 18:00N 01°16' E 103°47'0 0.0
2018-Feb-23 17:28N 01°16' E 103°47'0 0.0
2018-Feb-23 16:58N 01°16' E 103°47'0 0.0
2018-Feb-23 16:28N 01°16' E 103°47'0 0.0
2018-Feb-23 15:55N 01°16' E 103°47'0 0.0
2018-Feb-23 15:28N 01°16' E 103°47'0 0.0
2018-Feb-23 14:55N 01°16' E 103°47'0 0.0
2018-Feb-23 14:28N 01°16' E 103°47'0 0.0
2018-Feb-23 13:55N 01°16' E 103°47'0 0.0
2018-Feb-23 13:29N 01°16' E 103°47'0 0.0
2018-Feb-23 12:59N 01°16' E 103°47'0 0.0
2018-Feb-23 12:26N 01°16' E 103°47'0 0.0
2018-Feb-23 11:59N 01°16' E 103°47'0 0.0
2018-Feb-23 11:26N 01°16' E 103°47'0 0.0
2018-Feb-23 10:50N 01°16' E 103°47'0 0.0
2018-Feb-23 10:29N 01°16' E 103°47'0 0.0
2018-Feb-23 09:53N 01°16' E 103°47'0 0.0
2018-Feb-23 09:29N 01°16' E 103°47'0 0.5
2018-Feb-23 09:00N 01°16' E 103°47'2 3.2
2018-Feb-23 08:29N 01°15' E 103°45'2 4.1
2018-Feb-23 07:59N 01°15' E 103°43'5 9.5
2018-Feb-23 07:30N 01°12' E 103°39'3 6.1
2018-Feb-23 07:00N 01°12' E 103°36'4 8.5
2018-Feb-23 06:30N 01°10' E 103°32'713.8
2018-Feb-23 05:59N 01°12' E 103°25'715.1
2018-Feb-23 05:30N 01°16' E 103°20'  
Track history (hours):
 
Tides and Currents Weather Stations Pressure Air Temp Water Temp Dewpoint Dewpoint Depression Visibility Wind Speed Wind Dir Waves Ship Positions

CMA CGM Rhone

Last reported at 2018-Feb-24 14:02 UTC. Time now 2018-Feb-25 03:50 UTC.
Position N 01°15' E 104°15'.

Length 300 m; draft 12.3 m.

Type: Ship (hazmat cat A). MMSI: 229989000.

Date/timePositionNaut miles runAvg speedWind from/ knotsBaromVisibWave heightAir tempDewpointWater temp
2018-Feb-24 14:02N 01°15' E 104°15'720.0
2018-Feb-24 13:39N 01°15' E 104°07'319.7
2018-Feb-24 13:30N 01°14' E 104°04'918.8
2018-Feb-24 13:00N 01°13' E 103°55'612.6
2018-Feb-24 12:30N 01°12' E 103°49'4 8.6
2018-Feb-24 12:00N 01°15' E 103°46'1 2.1
2018-Feb-24 11:29N 01°16' E 103°47'0 0.0
2018-Feb-24 10:44N 01°16' E 103°47'0 0.0
2018-Feb-24 10:29N 01°16' E 103°47'0 0.0
2018-Feb-24 09:56N 01°16' E 103°47'0 0.0
2018-Feb-24 09:29N 01°16' E 103°47'0 0.0
2018-Feb-24 08:50N 01°16' E 103°47'0 0.0
2018-Feb-24 08:26N 01°16' E 103°47'0 0.0
2018-Feb-24 07:59N 01°16' E 103°47'0 0.0
2018-Feb-24 07:29N 01°16' E 103°47'0 0.0
2018-Feb-24 06:59N 01°16' E 103°47'0 0.0
2018-Feb-24 06:29N 01°16' E 103°47'0 0.0
2018-Feb-24 05:59N 01°16' E 103°47'0 0.0
2018-Feb-24 05:26N 01°16' E 103°47'0 0.0
2018-Feb-24 04:59N 01°16' E 103°47'0 0.0
2018-Feb-24 04:29N 01°16' E 103°47'0 0.0
2018-Feb-24 03:55N 01°16' E 103°47'0 0.0
2018-Feb-24 03:22N 01°16' E 103°47'0 0.0
2018-Feb-24 02:58N 01°16' E 103°47'0 0.0
2018-Feb-24 02:28N 01°16' E 103°47'0 0.0
2018-Feb-24 01:52N 01°16' E 103°47'0 0.0
2018-Feb-24 01:25N 01°16' E 103°47'0 0.0
2018-Feb-24 00:46N 01°16' E 103°47'0 0.0
2018-Feb-24 00:28N 01°16' E 103°47'0 0.0
2018-Feb-23 23:58N 01°16' E 103°47'0 0.0
2018-Feb-23 23:28N 01°16' E 103°47'0 0.0
2018-Feb-23 22:52N 01°16' E 103°47'0 0.0
2018-Feb-23 22:28N 01°16' E 103°47'0 0.0
2018-Feb-23 21:49N 01°16' E 103°47'0 0.0
2018-Feb-23 21:22N 01°16' E 103°47'0 0.0
2018-Feb-23 20:49N 01°16' E 103°47'0 0.0
2018-Feb-23 20:28N 01°16' E 103°47'0 0.0
2018-Feb-23 19:52N 01°16' E 103°47'0 0.0
2018-Feb-23 19:16N 01°16' E 103°47'0 0.0
2018-Feb-23 18:58N 01°16' E 103°47'0 0.0
2018-Feb-23 18:28N 01°16' E 103°47'0 0.0
2018-Feb-23 18:00N 01°16' E 103°47'0 0.0
2018-Feb-23 17:28N 01°16' E 103°47'0 0.0
2018-Feb-23 16:58N 01°16' E 103°47'0 0.0
2018-Feb-23 16:28N 01°16' E 103°47'0 0.0
2018-Feb-23 15:55N 01°16' E 103°47'0 0.0
2018-Feb-23 15:28N 01°16' E 103°47'0 0.0
2018-Feb-23 14:55N 01°16' E 103°47'0 0.0
2018-Feb-23 14:28N 01°16' E 103°47'0 0.0
2018-Feb-23 13:55N 01°16' E 103°47'0 0.0
2018-Feb-23 13:29N 01°16' E 103°47'0 0.0
2018-Feb-23 12:59N 01°16' E 103°47'0 0.0
2018-Feb-23 12:26N 01°16' E 103°47'0 0.0
2018-Feb-23 11:59N 01°16' E 103°47'0 0.0
2018-Feb-23 11:26N 01°16' E 103°47'0 0.0
2018-Feb-23 10:50N 01°16' E 103°47'0 0.0
2018-Feb-23 10:29N 01°16' E 103°47'0 0.0
2018-Feb-23 09:53N 01°16' E 103°47'0 0.0
2018-Feb-23 09:29N 01°16' E 103°47'0 0.5
2018-Feb-23 09:00N 01°16' E 103°47'2 3.2
2018-Feb-23 08:29N 01°15' E 103°45'2 4.1
2018-Feb-23 07:59N 01°15' E 103°43'5 9.5
2018-Feb-23 07:30N 01°12' E 103°39'3 6.1
2018-Feb-23 07:00N 01°12' E 103°36'4 8.5
2018-Feb-23 06:30N 01°10' E 103°32'713.8
2018-Feb-23 05:59N 01°12' E 103°25'715.1
2018-Feb-23 05:30N 01°16' E 103°20'  

Dump ship's entire track history